sensor_id;sensor_type;location;lat;lon;timestamp;P1;durP1;ratioP1;P2;durP2;ratioP2
3257;SDS011;1641;51.306;12.384;2023-10-13T00:00:28;16.20;;;10.48;;
3257;SDS011;1641;51.306;12.384;2023-10-13T00:03:05;15.23;;;10.00;;
3257;SDS011;1641;51.306;12.384;2023-10-13T00:05:34;14.13;;;10.70;;
3257;SDS011;1641;51.306;12.384;2023-10-13T00:08:00;16.75;;;11.25;;
3257;SDS011;1641;51.306;12.384;2023-10-13T00:10:27;11.18;;;9.98;;
3257;SDS011;1641;51.306;12.384;2023-10-13T00:12:53;14.75;;;10.80;;
3257;SDS011;1641;51.306;12.384;2023-10-13T00:15:18;16.95;;;10.57;;
3257;SDS011;1641;51.306;12.384;2023-10-13T00:17:52;14.55;;;10.90;;
3257;SDS011;1641;51.306;12.384;2023-10-13T00:20:18;11.52;;;10.40;;
3257;SDS011;1641;51.306;12.384;2023-10-13T00:23:03;14.23;;;10.73;;
3257;SDS011;1641;51.306;12.384;2023-10-13T00:25:31;15.25;;;10.43;;
3257;SDS011;1641;51.306;12.384;2023-10-13T00:28:08;15.30;;;10.50;;
3257;SDS011;1641;51.306;12.384;2023-10-13T00:30:34;12.38;;;10.20;;
3257;SDS011;1641;51.306;12.384;2023-10-13T00:33:00;13.45;;;9.60;;
3257;SDS011;1641;51.306;12.384;2023-10-13T00:35:28;14.15;;;9.88;;
3257;SDS011;1641;51.306;12.384;2023-10-13T00:38:01;13.90;;;9.73;;
3257;SDS011;1641;51.306;12.384;2023-10-13T00:40:38;12.95;;;9.75;;
3257;SDS011;1641;51.306;12.384;2023-10-13T00:43:04;11.40;;;10.20;;
3257;SDS011;1641;51.306;12.384;2023-10-13T00:45:50;16.05;;;9.40;;
3257;SDS011;1641;51.306;12.384;2023-10-13T00:48:25;11.10;;;8.07;;
3257;SDS011;1641;51.306;12.384;2023-10-13T00:51:08;13.02;;;8.95;;
3257;SDS011;1641;51.306;12.384;2023-10-13T00:53:53;13.48;;;8.75;;
3257;SDS011;1641;51.306;12.384;2023-10-13T00:56:21;16.42;;;8.95;;
3257;SDS011;1641;51.306;12.384;2023-10-13T00:58:52;12.80;;;9.20;;
3257;SDS011;1641;51.306;12.384;2023-10-13T01:01:22;15.27;;;10.40;;
3257;SDS011;1641;51.306;12.384;2023-10-13T01:03:51;17.35;;;9.20;;
3257;SDS011;1641;51.306;12.384;2023-10-13T01:06:21;14.45;;;9.85;;
3257;SDS011;1641;51.306;12.384;2023-10-13T01:08:56;10.50;;;8.70;;
3257;SDS011;1641;51.306;12.384;2023-10-13T01:11:22;11.95;;;9.82;;
3257;SDS011;1641;51.306;12.384;2023-10-13T01:13:49;12.95;;;9.55;;
3257;SDS011;1641;51.306;12.384;2023-10-13T01:16:17;15.77;;;10.07;;
3257;SDS011;1641;51.306;12.384;2023-10-13T01:18:43;11.07;;;9.15;;
3257;SDS011;1641;51.306;12.384;2023-10-13T01:21:17;19.92;;;9.27;;
3257;SDS011;1641;51.306;12.384;2023-10-13T01:23:45;10.30;;;8.93;;
3257;SDS011;1641;51.306;12.384;2023-10-13T01:26:12;14.00;;;8.80;;
3257;SDS011;1641;51.306;12.384;2023-10-13T01:28:56;9.70;;;8.45;;
3257;SDS011;1641;51.306;12.384;2023-10-13T01:31:22;20.55;;;9.23;;
3257;SDS011;1641;51.306;12.384;2023-10-13T01:33:55;12.88;;;8.98;;
3257;SDS011;1641;51.306;12.384;2023-10-13T01:36:23;13.38;;;8.82;;
3257;SDS011;1641;51.306;12.384;2023-10-13T01:38:50;13.93;;;9.23;;
3257;SDS011;1641;51.306;12.384;2023-10-13T01:41:15;17.90;;;9.38;;
3257;SDS011;1641;51.306;12.384;2023-10-13T01:43:41;11.30;;;8.93;;
3257;SDS011;1641;51.306;12.384;2023-10-13T01:46:06;11.13;;;8.90;;
3257;SDS011;1641;51.306;12.384;2023-10-13T01:48:34;10.13;;;8.02;;
3257;SDS011;1641;51.306;12.384;2023-10-13T01:51:03;13.27;;;8.98;;
3257;SDS011;1641;51.306;12.384;2023-10-13T01:53:30;9.68;;;8.50;;
3257;SDS011;1641;51.306;12.384;2023-10-13T01:55:56;11.13;;;8.20;;
3257;SDS011;1641;51.306;12.384;2023-10-13T01:58:24;13.73;;;7.85;;
3257;SDS011;1641;51.306;12.384;2023-10-13T02:00:51;13.02;;;7.93;;
3257;SDS011;1641;51.306;12.384;2023-10-13T02:03:17;8.75;;;7.22;;
3257;SDS011;1641;51.306;12.384;2023-10-13T02:05:43;9.23;;;6.88;;
3257;SDS011;1641;51.306;12.384;2023-10-13T02:08:12;9.80;;;7.75;;
3257;SDS011;1641;51.306;12.384;2023-10-13T02:10:42;15.07;;;7.95;;
3257;SDS011;1641;51.306;12.384;2023-10-13T02:13:12;10.32;;;8.15;;
3257;SDS011;1641;51.306;12.384;2023-10-13T02:15:43;11.35;;;7.55;;
3257;SDS011;1641;51.306;12.384;2023-10-13T02:18:10;11.23;;;6.95;;
3257;SDS011;1641;51.306;12.384;2023-10-13T02:20:38;11.35;;;7.32;;
3257;SDS011;1641;51.306;12.384;2023-10-13T02:23:10;12.60;;;6.50;;
3257;SDS011;1641;51.306;12.384;2023-10-13T02:25:36;11.93;;;6.82;;
3257;SDS011;1641;51.306;12.384;2023-10-13T02:28:08;8.07;;;6.38;;
3257;SDS011;1641;51.306;12.384;2023-10-13T02:30:42;9.17;;;6.27;;
3257;SDS011;1641;51.306;12.384;2023-10-13T02:33:13;14.50;;;7.38;;
3257;SDS011;1641;51.306;12.384;2023-10-13T02:35:40;11.65;;;7.88;;
3257;SDS011;1641;51.306;12.384;2023-10-13T02:38:23;7.72;;;6.65;;
3257;SDS011;1641;51.306;12.384;2023-10-13T02:40:56;13.05;;;8.43;;
3257;SDS011;1641;51.306;12.384;2023-10-13T02:43:30;14.35;;;8.10;;
3257;SDS011;1641;51.306;12.384;2023-10-13T02:45:58;11.35;;;7.50;;
3257;SDS011;1641;51.306;12.384;2023-10-13T02:48:25;10.38;;;7.40;;
3257;SDS011;1641;51.306;12.384;2023-10-13T02:51:07;10.15;;;7.43;;
3257;SDS011;1641;51.306;12.384;2023-10-13T02:53:43;8.32;;;6.75;;
3257;SDS011;1641;51.306;12.384;2023-10-13T02:56:15;14.65;;;6.93;;
3257;SDS011;1641;51.306;12.384;2023-10-13T02:58:46;11.77;;;7.55;;
3257;SDS011;1641;51.306;12.384;2023-10-13T03:01:18;10.02;;;7.38;;
3257;SDS011;1641;51.306;12.384;2023-10-13T03:03:49;11.95;;;7.18;;
3257;SDS011;1641;51.306;12.384;2023-10-13T03:06:16;8.57;;;7.50;;
3257;SDS011;1641;51.306;12.384;2023-10-13T03:08:44;12.95;;;7.65;;
3257;SDS011;1641;51.306;12.384;2023-10-13T03:11:10;12.82;;;7.68;;
3257;SDS011;1641;51.306;12.384;2023-10-13T03:13:36;8.73;;;7.80;;
3257;SDS011;1641;51.306;12.384;2023-10-13T03:16:10;9.65;;;8.48;;
3257;SDS011;1641;51.306;12.384;2023-10-13T03:18:36;12.60;;;8.60;;
3257;SDS011;1641;51.306;12.384;2023-10-13T03:21:03;13.55;;;8.75;;
3257;SDS011;1641;51.306;12.384;2023-10-13T03:23:28;11.27;;;9.05;;
3257;SDS011;1641;51.306;12.384;2023-10-13T03:26:00;12.85;;;9.55;;
3257;SDS011;1641;51.306;12.384;2023-10-13T03:28:33;13.13;;;10.13;;
3257;SDS011;1641;51.306;12.384;2023-10-13T03:30:59;20.95;;;10.63;;
3257;SDS011;1641;51.306;12.384;2023-10-13T03:33:26;14.07;;;10.88;;
3257;SDS011;1641;51.306;12.384;2023-10-13T03:35:51;18.85;;;12.05;;
3257;SDS011;1641;51.306;12.384;2023-10-13T03:38:31;16.00;;;11.45;;
3257;SDS011;1641;51.306;12.384;2023-10-13T03:41:01;14.55;;;10.95;;
3257;SDS011;1641;51.306;12.384;2023-10-13T03:43:37;13.40;;;10.27;;
3257;SDS011;1641;51.306;12.384;2023-10-13T03:46:31;18.13;;;11.60;;
3257;SDS011;1641;51.306;12.384;2023-10-13T03:48:58;14.63;;;10.98;;
3257;SDS011;1641;51.306;12.384;2023-10-13T03:51:26;20.45;;;12.13;;
3257;SDS011;1641;51.306;12.384;2023-10-13T03:53:56;13.77;;;9.98;;
3257;SDS011;1641;51.306;12.384;2023-10-13T03:56:22;16.42;;;11.25;;
3257;SDS011;1641;51.306;12.384;2023-10-13T03:58:53;14.25;;;10.23;;
3257;SDS011;1641;51.306;12.384;2023-10-13T04:01:21;14.73;;;10.38;;
3257;SDS011;1641;51.306;12.384;2023-10-13T04:03:58;13.65;;;9.18;;
3257;SDS011;1641;51.306;12.384;2023-10-13T04:06:44;19.75;;;9.55;;
3257;SDS011;1641;51.306;12.384;2023-10-13T04:09:19;12.77;;;8.85;;
3257;SDS011;1641;51.306;12.384;2023-10-13T04:11:54;19.50;;;9.73;;
3257;SDS011;1641;51.306;12.384;2023-10-13T04:14:26;17.73;;;8.85;;
3257;SDS011;1641;51.306;12.384;2023-10-13T04:17:07;15.13;;;8.65;;
3257;SDS011;1641;51.306;12.384;2023-10-13T04:19:39;16.73;;;9.07;;
3257;SDS011;1641;51.306;12.384;2023-10-13T04:22:24;12.13;;;8.05;;
3257;SDS011;1641;51.306;12.384;2023-10-13T04:25:11;8.35;;;7.55;;
3257;SDS011;1641;51.306;12.384;2023-10-13T04:28:00;11.90;;;7.43;;
3257;SDS011;1641;51.306;12.384;2023-10-13T04:30:50;15.05;;;7.75;;
3257;SDS011;1641;51.306;12.384;2023-10-13T04:33:22;11.40;;;8.02;;
3257;SDS011;1641;51.306;12.384;2023-10-13T04:36:00;11.13;;;7.85;;
3257;SDS011;1641;51.306;12.384;2023-10-13T04:38:37;11.23;;;7.57;;
3257;SDS011;1641;51.306;12.384;2023-10-13T04:41:20;12.18;;;7.35;;
3257;SDS011;1641;51.306;12.384;2023-10-13T04:43:49;12.00;;;8.20;;
3257;SDS011;1641;51.306;12.384;2023-10-13T04:46:21;12.10;;;8.05;;
3257;SDS011;1641;51.306;12.384;2023-10-13T04:49:05;9.40;;;7.88;;
3257;SDS011;1641;51.306;12.384;2023-10-13T04:51:52;12.13;;;8.30;;
3257;SDS011;1641;51.306;12.384;2023-10-13T04:54:27;12.48;;;7.78;;
3257;SDS011;1641;51.306;12.384;2023-10-13T04:57:12;17.77;;;9.38;;
3257;SDS011;1641;51.306;12.384;2023-10-13T04:59:51;13.80;;;7.78;;
3257;SDS011;1641;51.306;12.384;2023-10-13T05:02:40;11.55;;;7.95;;
3257;SDS011;1641;51.306;12.384;2023-10-13T05:05:10;14.77;;;8.50;;
3257;SDS011;1641;51.306;12.384;2023-10-13T05:07:40;11.70;;;8.68;;
3257;SDS011;1641;51.306;12.384;2023-10-13T05:10:24;12.13;;;9.02;;
3257;SDS011;1641;51.306;12.384;2023-10-13T05:13:08;14.27;;;9.57;;
3257;SDS011;1641;51.306;12.384;2023-10-13T05:15:52;13.30;;;9.40;;
3257;SDS011;1641;51.306;12.384;2023-10-13T05:18:36;16.05;;;10.60;;
3257;SDS011;1641;51.306;12.384;2023-10-13T05:21:20;15.60;;;10.38;;
3257;SDS011;1641;51.306;12.384;2023-10-13T05:24:04;12.48;;;9.60;;
3257;SDS011;1641;51.306;12.384;2023-10-13T05:26:49;13.20;;;10.52;;
3257;SDS011;1641;51.306;12.384;2023-10-13T05:29:33;12.85;;;9.23;;
3257;SDS011;1641;51.306;12.384;2023-10-13T05:32:30;14.20;;;9.45;;
3257;SDS011;1641;51.306;12.384;2023-10-13T05:35:16;14.63;;;9.82;;
3257;SDS011;1641;51.306;12.384;2023-10-13T05:38:01;14.02;;;10.32;;
3257;SDS011;1641;51.306;12.384;2023-10-13T05:40:58;15.88;;;10.50;;
3257;SDS011;1641;51.306;12.384;2023-10-13T05:43:43;14.82;;;10.00;;
3257;SDS011;1641;51.306;12.384;2023-10-13T05:46:27;13.27;;;10.73;;
3257;SDS011;1641;51.306;12.384;2023-10-13T05:48:55;19.50;;;10.30;;
3257;SDS011;1641;51.306;12.384;2023-10-13T05:51:24;17.67;;;11.25;;
3257;SDS011;1641;51.306;12.384;2023-10-13T05:54:11;23.60;;;10.35;;
3257;SDS011;1641;51.306;12.384;2023-10-13T05:56:39;17.83;;;10.73;;
3257;SDS011;1641;51.306;12.384;2023-10-13T05:59:36;12.13;;;9.82;;
3257;SDS011;1641;51.306;12.384;2023-10-13T06:02:22;16.67;;;11.40;;
3257;SDS011;1641;51.306;12.384;2023-10-13T06:05:07;14.90;;;10.85;;
3257;SDS011;1641;51.306;12.384;2023-10-13T06:07:55;20.02;;;12.02;;
3257;SDS011;1641;51.306;12.384;2023-10-13T06:10:41;17.23;;;10.27;;
3257;SDS011;1641;51.306;12.384;2023-10-13T06:13:25;16.55;;;10.02;;
3257;SDS011;1641;51.306;12.384;2023-10-13T06:16:09;21.20;;;11.52;;
3257;SDS011;1641;51.306;12.384;2023-10-13T06:18:57;12.70;;;9.60;;
3257;SDS011;1641;51.306;12.384;2023-10-13T06:21:42;19.33;;;10.85;;
3257;SDS011;1641;51.306;12.384;2023-10-13T06:24:27;15.20;;;9.95;;
3257;SDS011;1641;51.306;12.384;2023-10-13T06:27:14;13.02;;;10.55;;
3257;SDS011;1641;51.306;12.384;2023-10-13T06:30:02;14.68;;;11.25;;
3257;SDS011;1641;51.306;12.384;2023-10-13T06:32:29;13.17;;;9.63;;
3257;SDS011;1641;51.306;12.384;2023-10-13T06:34:56;14.88;;;9.57;;
3257;SDS011;1641;51.306;12.384;2023-10-13T06:37:32;16.55;;;9.70;;
3257;SDS011;1641;51.306;12.384;2023-10-13T06:39:59;13.77;;;10.00;;
3257;SDS011;1641;51.306;12.384;2023-10-13T06:42:32;12.95;;;9.25;;
3257;SDS011;1641;51.306;12.384;2023-10-13T06:44:59;13.90;;;9.93;;
3257;SDS011;1641;51.306;12.384;2023-10-13T06:47:36;14.32;;;10.40;;
3257;SDS011;1641;51.306;12.384;2023-10-13T06:50:14;14.10;;;9.15;;
3257;SDS011;1641;51.306;12.384;2023-10-13T06:52:41;12.85;;;8.77;;
3257;SDS011;1641;51.306;12.384;2023-10-13T06:55:13;10.30;;;8.98;;
3257;SDS011;1641;51.306;12.384;2023-10-13T06:57:42;13.95;;;8.63;;
3257;SDS011;1641;51.306;12.384;2023-10-13T07:00:09;14.63;;;8.63;;
3257;SDS011;1641;51.306;12.384;2023-10-13T07:02:44;13.18;;;8.73;;
3257;SDS011;1641;51.306;12.384;2023-10-13T07:05:13;9.82;;;7.88;;
3257;SDS011;1641;51.306;12.384;2023-10-13T07:07:39;9.48;;;7.85;;
3257;SDS011;1641;51.306;12.384;2023-10-13T07:10:08;14.50;;;7.80;;
3257;SDS011;1641;51.306;12.384;2023-10-13T07:12:37;9.52;;;7.60;;
3257;SDS011;1641;51.306;12.384;2023-10-13T07:15:08;10.45;;;7.28;;
3257;SDS011;1641;51.306;12.384;2023-10-13T07:17:47;12.02;;;6.38;;
3257;SDS011;1641;51.306;12.384;2023-10-13T07:20:19;8.68;;;6.25;;
3257;SDS011;1641;51.306;12.384;2023-10-13T07:22:54;7.55;;;6.22;;
3257;SDS011;1641;51.306;12.384;2023-10-13T07:25:32;6.80;;;5.57;;
3257;SDS011;1641;51.306;12.384;2023-10-13T07:28:04;6.85;;;5.45;;
3257;SDS011;1641;51.306;12.384;2023-10-13T07:30:33;9.68;;;6.35;;
3257;SDS011;1641;51.306;12.384;2023-10-13T07:33:09;10.18;;;5.68;;
3257;SDS011;1641;51.306;12.384;2023-10-13T07:35:38;9.30;;;5.03;;
3257;SDS011;1641;51.306;12.384;2023-10-13T07:38:03;7.57;;;5.82;;
3257;SDS011;1641;51.306;12.384;2023-10-13T07:40:32;13.80;;;6.28;;
3257;SDS011;1641;51.306;12.384;2023-10-13T07:43:01;12.63;;;5.63;;
3257;SDS011;1641;51.306;12.384;2023-10-13T07:45:28;11.18;;;5.45;;
3257;SDS011;1641;51.306;12.384;2023-10-13T07:48:04;7.20;;;5.15;;
3257;SDS011;1641;51.306;12.384;2023-10-13T07:50:58;9.32;;;5.28;;
3257;SDS011;1641;51.306;12.384;2023-10-13T07:53:31;9.35;;;5.03;;
3257;SDS011;1641;51.306;12.384;2023-10-13T07:56:00;7.20;;;5.20;;
3257;SDS011;1641;51.306;12.384;2023-10-13T07:58:33;8.18;;;5.32;;
3257;SDS011;1641;51.306;12.384;2023-10-13T08:00:59;9.27;;;5.00;;
3257;SDS011;1641;51.306;12.384;2023-10-13T08:03:41;11.77;;;5.97;;
3257;SDS011;1641;51.306;12.384;2023-10-13T08:06:10;9.30;;;4.97;;
3257;SDS011;1641;51.306;12.384;2023-10-13T08:08:42;11.40;;;5.28;;
3257;SDS011;1641;51.306;12.384;2023-10-13T08:11:14;8.18;;;4.88;;
3257;SDS011;1641;51.306;12.384;2023-10-13T08:13:53;10.20;;;5.32;;
3257;SDS011;1641;51.306;12.384;2023-10-13T08:16:24;8.77;;;5.50;;
3257;SDS011;1641;51.306;12.384;2023-10-13T08:19:16;10.02;;;5.55;;
3257;SDS011;1641;51.306;12.384;2023-10-13T08:21:45;10.75;;;5.95;;
3257;SDS011;1641;51.306;12.384;2023-10-13T08:24:26;10.02;;;5.22;;
3257;SDS011;1641;51.306;12.384;2023-10-13T08:27:15;9.40;;;4.80;;
3257;SDS011;1641;51.306;12.384;2023-10-13T08:30:00;13.75;;;6.20;;
3257;SDS011;1641;51.306;12.384;2023-10-13T08:32:27;10.07;;;5.65;;
3257;SDS011;1641;51.306;12.384;2023-10-13T08:34:54;6.97;;;4.63;;
3257;SDS011;1641;51.306;12.384;2023-10-13T08:37:20;12.40;;;6.75;;
3257;SDS011;1641;51.306;12.384;2023-10-13T08:39:47;10.68;;;5.22;;
3257;SDS011;1641;51.306;12.384;2023-10-13T08:42:31;8.35;;;5.82;;
3257;SDS011;1641;51.306;12.384;2023-10-13T08:45:04;9.75;;;6.28;;
3257;SDS011;1641;51.306;12.384;2023-10-13T08:47:51;10.52;;;5.93;;
3257;SDS011;1641;51.306;12.384;2023-10-13T08:50:33;11.80;;;6.10;;
3257;SDS011;1641;51.306;12.384;2023-10-13T08:53:17;10.18;;;6.00;;
3257;SDS011;1641;51.306;12.384;2023-10-13T08:58:35;10.70;;;6.22;;
3257;SDS011;1641;51.306;12.384;2023-10-13T09:01:20;11.65;;;5.40;;
3257;SDS011;1641;51.306;12.384;2023-10-13T09:04:08;12.45;;;5.25;;
3257;SDS011;1641;51.306;12.384;2023-10-13T09:06:51;9.60;;;5.75;;
3257;SDS011;1641;51.306;12.384;2023-10-13T09:12:15;8.63;;;5.32;;
3257;SDS011;1641;51.306;12.384;2023-10-13T09:14:57;15.15;;;6.07;;
3257;SDS011;1641;51.306;12.384;2023-10-13T09:17:26;9.98;;;5.15;;
3257;SDS011;1641;51.306;12.384;2023-10-13T09:22:52;8.20;;;6.03;;
3257;SDS011;1641;51.306;12.384;2023-10-13T09:25:26;13.43;;;6.45;;
3257;SDS011;1641;51.306;12.384;2023-10-13T09:28:03;12.57;;;5.10;;
3257;SDS011;1641;51.306;12.384;2023-10-13T09:30:46;11.73;;;5.20;;
3257;SDS011;1641;51.306;12.384;2023-10-13T09:33:13;12.30;;;5.05;;
3257;SDS011;1641;51.306;12.384;2023-10-13T09:35:44;8.77;;;5.10;;
3257;SDS011;1641;51.306;12.384;2023-10-13T09:38:18;10.85;;;5.50;;
3257;SDS011;1641;51.306;12.384;2023-10-13T09:40:45;9.07;;;5.03;;
3257;SDS011;1641;51.306;12.384;2023-10-13T09:43:17;11.93;;;5.65;;
3257;SDS011;1641;51.306;12.384;2023-10-13T09:45:46;11.65;;;5.32;;
3257;SDS011;1641;51.306;12.384;2023-10-13T09:51:12;9.27;;;6.15;;
3257;SDS011;1641;51.306;12.384;2023-10-13T09:53:39;13.57;;;5.63;;
3257;SDS011;1641;51.306;12.384;2023-10-13T09:56:20;11.73;;;6.00;;
3257;SDS011;1641;51.306;12.384;2023-10-13T09:59:08;12.85;;;6.05;;
3257;SDS011;1641;51.306;12.384;2023-10-13T10:01:41;11.38;;;5.28;;
3257;SDS011;1641;51.306;12.384;2023-10-13T10:04:22;11.10;;;5.55;;
3257;SDS011;1641;51.306;12.384;2023-10-13T10:06:57;15.63;;;5.82;;
3257;SDS011;1641;51.306;12.384;2023-10-13T10:09:29;10.50;;;6.03;;
3257;SDS011;1641;51.306;12.384;2023-10-13T10:12:14;9.60;;;5.22;;
3257;SDS011;1641;51.306;12.384;2023-10-13T10:15:06;8.00;;;4.28;;
3257;SDS011;1641;51.306;12.384;2023-10-13T10:17:45;11.13;;;5.30;;
3257;SDS011;1641;51.306;12.384;2023-10-13T10:20:10;9.65;;;5.28;;
3257;SDS011;1641;51.306;12.384;2023-10-13T10:22:57;24.13;;;5.43;;
3257;SDS011;1641;51.306;12.384;2023-10-13T10:25:31;14.88;;;5.35;;
3257;SDS011;1641;51.306;12.384;2023-10-13T10:28:04;8.18;;;5.15;;
3257;SDS011;1641;51.306;12.384;2023-10-13T10:30:31;9.77;;;5.43;;
3257;SDS011;1641;51.306;12.384;2023-10-13T10:32:59;15.10;;;5.00;;
3257;SDS011;1641;51.306;12.384;2023-10-13T10:35:26;10.68;;;4.55;;
3257;SDS011;1641;51.306;12.384;2023-10-13T10:38:16;18.13;;;5.35;;
3257;SDS011;1641;51.306;12.384;2023-10-13T10:40:50;8.63;;;5.28;;
3257;SDS011;1641;51.306;12.384;2023-10-13T10:43:36;8.65;;;5.50;;
3257;SDS011;1641;51.306;12.384;2023-10-13T10:46:12;17.52;;;5.10;;
3257;SDS011;1641;51.306;12.384;2023-10-13T10:48:38;10.07;;;4.72;;
3257;SDS011;1641;51.306;12.384;2023-10-13T10:51:08;7.30;;;4.50;;
3257;SDS011;1641;51.306;12.384;2023-10-13T10:54:00;12.82;;;5.72;;
3257;SDS011;1641;51.306;12.384;2023-10-13T10:56:37;11.73;;;5.00;;
3257;SDS011;1641;51.306;12.384;2023-10-13T10:59:03;8.32;;;4.60;;
3257;SDS011;1641;51.306;12.384;2023-10-13T11:01:30;8.45;;;3.90;;
3257;SDS011;1641;51.306;12.384;2023-10-13T11:04:12;13.75;;;5.82;;
3257;SDS011;1641;51.306;12.384;2023-10-13T11:06:50;9.70;;;4.65;;
3257;SDS011;1641;51.306;12.384;2023-10-13T11:12:11;13.10;;;5.22;;
3257;SDS011;1641;51.306;12.384;2023-10-13T11:14:42;12.48;;;5.10;;
3257;SDS011;1641;51.306;12.384;2023-10-13T11:17:18;10.10;;;4.70;;
3257;SDS011;1641;51.306;12.384;2023-10-13T11:19:49;9.13;;;4.38;;
3257;SDS011;1641;51.306;12.384;2023-10-13T11:25:07;14.32;;;5.43;;
3257;SDS011;1641;51.306;12.384;2023-10-13T11:27:36;9.23;;;4.78;;
3257;SDS011;1641;51.306;12.384;2023-10-13T11:30:15;9.32;;;4.38;;
3257;SDS011;1641;51.306;12.384;2023-10-13T11:32:45;8.25;;;4.72;;
3257;SDS011;1641;51.306;12.384;2023-10-13T11:35:11;14.20;;;5.20;;
3257;SDS011;1641;51.306;12.384;2023-10-13T11:38:00;14.57;;;4.22;;
3257;SDS011;1641;51.306;12.384;2023-10-13T11:40:36;8.88;;;4.68;;
3257;SDS011;1641;51.306;12.384;2023-10-13T11:43:08;11.00;;;4.95;;
3257;SDS011;1641;51.306;12.384;2023-10-13T11:45:47;10.27;;;3.92;;
3257;SDS011;1641;51.306;12.384;2023-10-13T11:48:22;11.65;;;5.10;;
3257;SDS011;1641;51.306;12.384;2023-10-13T11:51:06;12.05;;;4.90;;
3257;SDS011;1641;51.306;12.384;2023-10-13T11:54:04;12.23;;;4.22;;
3257;SDS011;1641;51.306;12.384;2023-10-13T11:56:29;9.93;;;4.10;;
3257;SDS011;1641;51.306;12.384;2023-10-13T11:58:54;13.32;;;4.97;;
3257;SDS011;1641;51.306;12.384;2023-10-13T12:04:11;11.57;;;4.65;;
3257;SDS011;1641;51.306;12.384;2023-10-13T12:06:55;11.75;;;4.53;;
3257;SDS011;1641;51.306;12.384;2023-10-13T12:09:56;15.65;;;6.47;;
3257;SDS011;1641;51.306;12.384;2023-10-13T12:12:21;10.07;;;5.32;;
3257;SDS011;1641;51.306;12.384;2023-10-13T12:14:47;12.60;;;4.65;;
3257;SDS011;1641;51.306;12.384;2023-10-13T12:17:22;16.67;;;5.07;;
3257;SDS011;1641;51.306;12.384;2023-10-13T12:22:30;10.02;;;5.30;;
3257;SDS011;1641;51.306;12.384;2023-10-13T12:25:07;11.55;;;4.78;;
3257;SDS011;1641;51.306;12.384;2023-10-13T12:27:59;12.23;;;4.70;;
3257;SDS011;1641;51.306;12.384;2023-10-13T12:30:48;15.48;;;10.32;;
3257;SDS011;1641;51.306;12.384;2023-10-13T12:33:14;12.73;;;5.90;;
3257;SDS011;1641;51.306;12.384;2023-10-13T12:35:42;16.25;;;6.85;;
3257;SDS011;1641;51.306;12.384;2023-10-13T12:38:23;10.65;;;5.35;;
3257;SDS011;1641;51.306;12.384;2023-10-13T12:41:08;15.13;;;5.30;;
3257;SDS011;1641;51.306;12.384;2023-10-13T12:43:51;9.93;;;4.38;;
3257;SDS011;1641;51.306;12.384;2023-10-13T12:46:36;9.65;;;4.53;;
3257;SDS011;1641;51.306;12.384;2023-10-13T12:49:23;10.07;;;4.88;;
3257;SDS011;1641;51.306;12.384;2023-10-13T12:52:06;17.80;;;5.90;;
3257;SDS011;1641;51.306;12.384;2023-10-13T12:54:44;12.45;;;6.65;;
3257;SDS011;1641;51.306;12.384;2023-10-13T12:57:27;11.63;;;4.78;;
3257;SDS011;1641;51.306;12.384;2023-10-13T12:59:53;13.05;;;4.57;;
3257;SDS011;1641;51.306;12.384;2023-10-13T13:02:22;12.23;;;5.00;;
3257;SDS011;1641;51.306;12.384;2023-10-13T13:04:50;15.40;;;4.82;;
3257;SDS011;1641;51.306;12.384;2023-10-13T13:07:32;13.23;;;5.10;;
3257;SDS011;1641;51.306;12.384;2023-10-13T13:12:40;10.75;;;4.95;;
3257;SDS011;1641;51.306;12.384;2023-10-13T13:15:09;16.00;;;5.15;;
3257;SDS011;1641;51.306;12.384;2023-10-13T13:17:36;14.30;;;4.72;;
3257;SDS011;1641;51.306;12.384;2023-10-13T13:20:04;8.18;;;4.70;;
3257;SDS011;1641;51.306;12.384;2023-10-13T13:22:39;7.75;;;5.57;;
3257;SDS011;1641;51.306;12.384;2023-10-13T13:25:07;13.63;;;5.32;;
3257;SDS011;1641;51.306;12.384;2023-10-13T13:27:34;13.40;;;4.93;;
3257;SDS011;1641;51.306;12.384;2023-10-13T13:29:59;15.57;;;6.22;;
3257;SDS011;1641;51.306;12.384;2023-10-13T13:32:25;13.77;;;5.70;;
3257;SDS011;1641;51.306;12.384;2023-10-13T13:34:53;45.97;;;23.60;;
3257;SDS011;1641;51.306;12.384;2023-10-13T13:37:20;77.07;;;39.70;;
3257;SDS011;1641;51.306;12.384;2023-10-13T13:39:46;19.98;;;9.45;;
3257;SDS011;1641;51.306;12.384;2023-10-13T13:42:12;25.98;;;8.85;;
3257;SDS011;1641;51.306;12.384;2023-10-13T13:44:42;17.98;;;8.93;;
3257;SDS011;1641;51.306;12.384;2023-10-13T13:47:16;16.75;;;8.93;;
3257;SDS011;1641;51.306;12.384;2023-10-13T13:49:45;11.20;;;6.90;;
3257;SDS011;1641;51.306;12.384;2023-10-13T13:52:19;9.57;;;5.30;;
3257;SDS011;1641;51.306;12.384;2023-10-13T13:54:53;12.48;;;4.70;;
3257;SDS011;1641;51.306;12.384;2023-10-13T13:57:18;10.75;;;6.00;;
3257;SDS011;1641;51.306;12.384;2023-10-13T13:59:43;9.52;;;5.25;;
3257;SDS011;1641;51.306;12.384;2023-10-13T14:02:13;11.23;;;6.40;;
3257;SDS011;1641;51.306;12.384;2023-10-13T14:04:45;9.20;;;4.85;;
3257;SDS011;1641;51.306;12.384;2023-10-13T14:07:12;12.73;;;5.13;;
3257;SDS011;1641;51.306;12.384;2023-10-13T14:09:40;8.88;;;5.10;;
3257;SDS011;1641;51.306;12.384;2023-10-13T14:12:08;11.07;;;4.70;;
3257;SDS011;1641;51.306;12.384;2023-10-13T14:14:55;7.43;;;4.18;;
3257;SDS011;1641;51.306;12.384;2023-10-13T14:17:24;10.98;;;4.10;;
3257;SDS011;1641;51.306;12.384;2023-10-13T14:19:53;7.38;;;4.40;;
3257;SDS011;1641;51.306;12.384;2023-10-13T14:22:20;9.35;;;4.63;;
3257;SDS011;1641;51.306;12.384;2023-10-13T14:24:50;10.70;;;4.57;;
3257;SDS011;1641;51.306;12.384;2023-10-13T14:27:20;8.80;;;4.25;;
3257;SDS011;1641;51.306;12.384;2023-10-13T14:29:48;21.60;;;10.18;;
3257;SDS011;1641;51.306;12.384;2023-10-13T14:32:18;39.35;;;17.48;;
3257;SDS011;1641;51.306;12.384;2023-10-13T14:34:45;18.13;;;5.38;;
3257;SDS011;1641;51.306;12.384;2023-10-13T14:37:16;29.60;;;12.77;;
3257;SDS011;1641;51.306;12.384;2023-10-13T14:39:54;12.40;;;6.68;;
3257;SDS011;1641;51.306;12.384;2023-10-13T14:42:25;14.30;;;6.03;;
3257;SDS011;1641;51.306;12.384;2023-10-13T14:44:51;36.75;;;19.33;;
3257;SDS011;1641;51.306;12.384;2023-10-13T14:47:23;40.20;;;17.85;;
3257;SDS011;1641;51.306;12.384;2023-10-13T14:49:52;11.70;;;5.18;;
3257;SDS011;1641;51.306;12.384;2023-10-13T14:52:24;16.10;;;5.63;;
3257;SDS011;1641;51.306;12.384;2023-10-13T14:54:50;25.05;;;10.70;;
3257;SDS011;1641;51.306;12.384;2023-10-13T14:57:20;16.02;;;7.28;;
3257;SDS011;1641;51.306;12.384;2023-10-13T14:59:52;13.73;;;8.32;;
3257;SDS011;1641;51.306;12.384;2023-10-13T15:02:18;17.83;;;9.80;;
3257;SDS011;1641;51.306;12.384;2023-10-13T15:04:47;10.70;;;5.60;;
3257;SDS011;1641;51.306;12.384;2023-10-13T15:07:16;10.07;;;4.63;;
3257;SDS011;1641;51.306;12.384;2023-10-13T15:09:42;23.55;;;7.00;;
3257;SDS011;1641;51.306;12.384;2023-10-13T15:12:08;7.45;;;5.03;;
3257;SDS011;1641;51.306;12.384;2023-10-13T15:14:35;9.40;;;4.15;;
3257;SDS011;1641;51.306;12.384;2023-10-13T15:17:07;8.40;;;4.78;;
3257;SDS011;1641;51.306;12.384;2023-10-13T15:19:32;9.35;;;4.20;;
3257;SDS011;1641;51.306;12.384;2023-10-13T15:22:06;11.02;;;4.40;;
3257;SDS011;1641;51.306;12.384;2023-10-13T15:24:33;6.97;;;3.88;;
3257;SDS011;1641;51.306;12.384;2023-10-13T15:27:08;9.82;;;4.70;;
3257;SDS011;1641;51.306;12.384;2023-10-13T15:29:33;11.63;;;4.35;;
3257;SDS011;1641;51.306;12.384;2023-10-13T15:32:02;6.75;;;4.40;;
3257;SDS011;1641;51.306;12.384;2023-10-13T15:34:51;10.40;;;3.75;;
3257;SDS011;1641;51.306;12.384;2023-10-13T15:37:16;10.52;;;4.45;;
3257;SDS011;1641;51.306;12.384;2023-10-13T15:39:42;12.02;;;4.00;;
3257;SDS011;1641;51.306;12.384;2023-10-13T15:42:07;11.38;;;4.18;;
3257;SDS011;1641;51.306;12.384;2023-10-13T15:44:34;6.40;;;4.00;;
3257;SDS011;1641;51.306;12.384;2023-10-13T15:47:00;9.15;;;4.10;;
3257;SDS011;1641;51.306;12.384;2023-10-13T15:49:25;6.15;;;3.30;;
3257;SDS011;1641;51.306;12.384;2023-10-13T15:51:53;12.10;;;3.75;;